createdAt,value
2023-05-24T00:02:15.475Z,4.28
2023-05-24T00:04:42.579Z,4.65
2023-05-24T00:07:09.313Z,4.18
2023-05-24T00:09:36.160Z,4.50
2023-05-24T00:12:03.147Z,4.40
2023-05-24T00:14:30.226Z,4.28
2023-05-24T00:16:57.122Z,3.65
2023-05-24T00:19:24.070Z,3.90
2023-05-24T00:21:50.817Z,4.00
2023-05-24T00:24:17.742Z,4.10
2023-05-24T00:26:45.059Z,3.83
2023-05-24T00:29:12.029Z,4.13
2023-05-24T00:31:38.868Z,3.35
2023-05-24T00:34:06.218Z,3.92
2023-05-24T00:36:33.340Z,3.70
2023-05-24T00:39:00.154Z,3.35
2023-05-24T00:41:27.118Z,3.58
2023-05-24T00:43:54.038Z,3.78
2023-05-24T00:46:22.510Z,4.30
2023-05-24T00:48:50.806Z,3.70
2023-05-24T00:51:18.186Z,3.85
2023-05-24T00:53:49.173Z,3.72
2023-05-24T00:56:17.222Z,3.47
2023-05-24T00:58:44.743Z,4.78
2023-05-24T01:01:11.826Z,3.30
2023-05-24T01:03:39.687Z,3.83
2023-05-24T01:06:08.098Z,4.22
2023-05-24T01:08:48.225Z,3.75
2023-05-24T01:11:45.061Z,3.85
2023-05-24T01:14:27.210Z,4.15
2023-05-24T01:17:06.823Z,4.05
2023-05-24T01:20:02.423Z,3.17
2023-05-24T01:22:35.084Z,3.63
2023-05-24T01:25:17.104Z,3.60
2023-05-24T01:27:44.814Z,3.75
2023-05-24T01:30:12.282Z,4.00
2023-05-24T01:32:39.294Z,3.95
2023-05-24T01:35:06.212Z,3.72
2023-05-24T01:37:33.050Z,4.05
2023-05-24T01:40:00.564Z,3.38
2023-05-24T01:42:39.397Z,3.65
2023-05-24T01:45:18.236Z,3.30
2023-05-24T01:48:08.857Z,3.40
2023-05-24T01:50:42.917Z,3.60
2023-05-24T01:53:13.422Z,3.22
2023-05-24T01:55:40.765Z,3.05
2023-05-24T01:58:09.139Z,3.53
2023-05-24T02:00:36.421Z,3.05
2023-05-24T02:03:03.933Z,2.97
2023-05-24T02:05:33.199Z,3.63
2023-05-24T02:08:00.053Z,2.75
2023-05-24T02:10:26.798Z,3.47
2023-05-24T02:12:53.689Z,3.65
2023-05-24T02:15:20.797Z,3.33
2023-05-24T02:17:48.220Z,2.83
2023-05-24T02:20:17.411Z,2.90
2023-05-24T02:22:44.353Z,3.25
2023-05-24T02:25:11.557Z,3.08
2023-05-24T02:27:38.294Z,3.00
2023-05-24T02:30:06.784Z,3.15
2023-05-24T02:32:34.855Z,2.80
2023-05-24T02:35:02.082Z,3.20
2023-05-24T02:37:28.906Z,2.85
2023-05-24T02:39:55.834Z,3.05
2023-05-24T02:42:22.747Z,3.35
2023-05-24T02:44:52.512Z,3.00
2023-05-24T02:47:19.971Z,3.25
2023-05-24T02:49:46.923Z,3.63
2023-05-24T02:52:14.765Z,3.15
2023-05-24T02:54:41.716Z,8.50
2023-05-24T02:57:08.448Z,7.13
2023-05-24T02:59:35.308Z,6.80
2023-05-24T03:02:02.326Z,3.97
2023-05-24T03:04:29.254Z,4.95
2023-05-24T03:06:56.473Z,3.25
2023-05-24T03:09:23.193Z,3.60
2023-05-24T03:11:50.034Z,3.90
2023-05-24T03:14:17.574Z,3.50
2023-05-24T03:16:44.506Z,3.22
2023-05-24T03:19:11.286Z,3.28
2023-05-24T03:21:38.368Z,3.10
2023-05-24T03:24:05.717Z,3.65
2023-05-24T03:26:32.536Z,3.30
2023-05-24T03:28:59.217Z,2.92
2023-05-24T03:31:26.803Z,3.38
2023-05-24T03:33:53.790Z,3.13
2023-05-24T03:36:21.475Z,3.17
2023-05-24T03:38:48.325Z,3.22
2023-05-24T03:41:15.373Z,2.95
2023-05-24T03:43:42.179Z,4.25
2023-05-24T03:46:09.111Z,3.03
2023-05-24T03:48:36.102Z,3.15
2023-05-24T03:51:02.875Z,3.05
2023-05-24T03:53:29.829Z,3.50
2023-05-24T03:55:56.721Z,3.33
2023-05-24T03:58:23.479Z,2.85
2023-05-24T04:00:50.323Z,3.05
2023-05-24T04:03:20.174Z,8.38
2023-05-24T04:05:47.530Z,5.07
2023-05-24T04:08:15.234Z,3.17
2023-05-24T04:10:42.624Z,3.20
2023-05-24T04:13:09.664Z,3.42
2023-05-24T04:15:38.092Z,4.07
2023-05-24T04:18:05.442Z,3.20
2023-05-24T04:20:32.654Z,3.40
2023-05-24T04:22:59.452Z,3.35
2023-05-24T04:25:27.029Z,3.95
2023-05-24T04:27:53.965Z,3.50
2023-05-24T04:30:21.587Z,3.42
2023-05-24T04:32:48.703Z,3.10
2023-05-24T04:35:16.870Z,3.00
2023-05-24T04:37:44.594Z,3.78
2023-05-24T04:40:12.094Z,3.08
2023-05-24T04:42:39.322Z,3.13
2023-05-24T04:45:07.135Z,4.55
2023-05-24T04:47:34.266Z,6.60
2023-05-24T04:50:01.110Z,3.90
2023-05-24T04:52:27.941Z,3.20
2023-05-24T04:54:55.803Z,14.57
2023-05-24T04:57:22.720Z,3.67
2023-05-24T04:59:49.625Z,3.03
2023-05-24T05:02:16.425Z,3.60
2023-05-24T05:04:43.262Z,2.95
2023-05-24T05:07:10.221Z,2.88
2023-05-24T05:09:37.038Z,3.83
2023-05-24T05:12:03.909Z,3.65
2023-05-24T05:14:30.649Z,10.85
2023-05-24T05:16:57.581Z,3.40
2023-05-24T05:19:24.586Z,3.17
2023-05-24T05:21:51.737Z,3.38
2023-05-24T05:24:19.204Z,4.03
2023-05-24T05:26:45.957Z,2.67
2023-05-24T05:29:12.806Z,4.57
2023-05-24T05:31:39.749Z,8.73
2023-05-24T05:34:09.858Z,53.67
2023-05-24T05:36:40.941Z,6.50
2023-05-24T05:39:11.544Z,4.20
2023-05-24T05:41:46.497Z,4.00
2023-05-24T05:44:14.188Z,3.55
2023-05-24T05:46:43.954Z,3.20
2023-05-24T05:49:11.054Z,3.78
2023-05-24T05:51:38.824Z,3.45
2023-05-24T05:54:06.100Z,5.00
2023-05-24T05:56:32.999Z,3.58
2023-05-24T05:58:59.700Z,3.03
2023-05-24T06:01:26.524Z,4.22
2023-05-24T06:03:53.406Z,3.38
2023-05-24T06:06:20.312Z,3.60
2023-05-24T06:08:46.998Z,3.67
2023-05-24T06:11:13.747Z,3.58
2023-05-24T06:13:40.385Z,3.28
2023-05-24T06:16:08.888Z,3.38
2023-05-24T06:18:36.803Z,3.70
2023-05-24T06:21:03.860Z,3.83
2023-05-24T06:23:30.829Z,3.25
2023-05-24T06:25:57.621Z,3.40
2023-05-24T06:28:24.680Z,3.60
2023-05-24T06:30:51.893Z,4.32
2023-05-24T06:33:19.193Z,3.72
2023-05-24T06:35:46.162Z,3.75
2023-05-24T06:38:12.910Z,4.10
2023-05-24T06:40:39.946Z,3.40
2023-05-24T06:43:06.867Z,3.90
2023-05-24T06:45:33.612Z,3.38
2023-05-24T06:48:00.465Z,3.72
2023-05-24T06:50:27.431Z,3.83
2023-05-24T06:52:54.075Z,3.80
2023-05-24T06:55:21.014Z,4.15
2023-05-24T06:57:47.653Z,4.07
2023-05-24T07:00:14.816Z,4.50
2023-05-24T07:02:42.236Z,4.18
2023-05-24T07:05:12.248Z,3.85
2023-05-24T07:07:40.255Z,3.88
2023-05-24T07:10:13.524Z,3.70
2023-05-24T07:12:40.849Z,3.78
2023-05-24T07:15:08.863Z,3.72
2023-05-24T07:17:36.015Z,4.28
2023-05-24T07:20:03.210Z,3.53
2023-05-24T07:22:31.688Z,3.75
2023-05-24T07:24:58.559Z,3.50
2023-05-24T07:27:25.368Z,3.60
2023-05-24T07:29:52.344Z,3.15
2023-05-24T07:32:19.099Z,3.83
2023-05-24T07:34:45.927Z,4.40
2023-05-24T07:37:12.576Z,4.00
2023-05-24T07:39:39.241Z,4.00
2023-05-24T07:42:06.462Z,3.55
2023-05-24T07:44:33.356Z,4.07
2023-05-24T07:47:01.189Z,5.72
2023-05-24T07:49:28.242Z,6.15
2023-05-24T07:51:58.297Z,9.93
2023-05-24T07:54:25.461Z,4.13
2023-05-24T07:56:52.543Z,4.20
2023-05-24T07:59:19.326Z,3.88
2023-05-24T08:01:47.865Z,3.83
2023-05-24T08:04:14.759Z,4.40
2023-05-24T08:06:41.915Z,3.75
2023-05-24T08:09:08.898Z,4.57
2023-05-24T08:11:35.590Z,4.80
2023-05-24T08:14:02.295Z,3.80
2023-05-24T08:16:29.103Z,4.00
2023-05-24T08:18:56.045Z,4.35
2023-05-24T08:21:23.590Z,3.90
2023-05-24T08:23:51.252Z,3.95
2023-05-24T08:26:19.546Z,4.32
2023-05-24T08:28:46.432Z,4.07
2023-05-24T08:31:13.307Z,4.03
2023-05-24T08:33:41.072Z,5.13
2023-05-24T08:36:07.825Z,4.72
2023-05-24T08:38:34.501Z,3.70
2023-05-24T08:41:05.771Z,4.32
2023-05-24T08:43:33.229Z,4.43
2023-05-24T08:46:02.644Z,4.70
2023-05-24T08:48:29.685Z,3.85
2023-05-24T08:50:57.959Z,4.25
2023-05-24T08:53:25.386Z,4.43
2023-05-24T08:55:53.454Z,4.30
2023-05-24T08:58:20.882Z,4.40
2023-05-24T09:00:47.656Z,4.65
2023-05-24T09:03:14.636Z,3.78
2023-05-24T09:05:42.067Z,4.32
2023-05-24T09:08:10.196Z,4.68
2023-05-24T09:10:49.303Z,4.43
2023-05-24T09:13:24.911Z,4.35
2023-05-24T09:15:52.013Z,3.90
2023-05-24T09:18:18.882Z,4.32
2023-05-24T09:20:46.106Z,4.95
2023-05-24T09:23:14.698Z,6.65
2023-05-24T09:25:46.141Z,11.77
2023-05-24T09:28:18.110Z,4.07
2023-05-24T09:30:46.331Z,4.45
2023-05-24T09:33:13.596Z,4.00
2023-05-24T09:35:44.463Z,4.15
2023-05-24T09:38:18.981Z,4.25
2023-05-24T09:40:46.760Z,4.28
2023-05-24T09:43:13.733Z,4.45
2023-05-24T09:45:46.832Z,3.97
2023-05-24T09:48:15.326Z,4.60
2023-05-24T09:50:43.050Z,4.03
2023-05-24T09:53:10.076Z,4.22
2023-05-24T09:55:37.602Z,4.40
2023-05-24T09:58:09.106Z,4.75
2023-05-24T10:00:40.002Z,4.88
2023-05-24T10:03:12.003Z,5.18
2023-05-24T10:05:41.865Z,4.30
2023-05-24T10:08:09.988Z,4.47
2023-05-24T10:10:36.663Z,4.68
2023-05-24T10:13:03.712Z,4.50
2023-05-24T10:15:30.919Z,5.10
2023-05-24T10:17:58.804Z,4.63
2023-05-24T10:20:25.595Z,10.15
2023-05-24T10:22:55.605Z,6.22
2023-05-24T10:25:25.886Z,12.52
2023-05-24T10:27:57.589Z,5.22
2023-05-24T10:30:34.514Z,21.63
2023-05-24T10:33:02.476Z,5.15
2023-05-24T10:35:30.575Z,4.07
2023-05-24T10:37:57.489Z,5.13
2023-05-24T10:40:27.199Z,4.15
2023-05-24T10:42:56.780Z,4.05
2023-05-24T10:45:35.388Z,4.50
2023-05-24T10:48:14.589Z,4.90
2023-05-24T10:50:42.796Z,4.95
2023-05-24T10:53:16.462Z,5.35
2023-05-24T10:55:59.639Z,4.43
2023-05-24T10:58:58.609Z,4.22
2023-05-24T11:01:30.341Z,3.88
2023-05-24T11:04:11.387Z,4.57
2023-05-24T11:06:55.682Z,4.45
2023-05-24T11:09:25.126Z,4.07
2023-05-24T11:11:56.350Z,4.85
2023-05-24T11:14:25.233Z,4.05
2023-05-24T11:16:52.397Z,4.57
2023-05-24T11:19:34.470Z,18.63
2023-05-24T11:22:04.271Z,9.30
2023-05-24T11:24:31.528Z,5.30
2023-05-24T11:26:59.380Z,5.47
2023-05-24T11:29:26.408Z,4.85
2023-05-24T11:31:55.295Z,4.20
2023-05-24T11:34:22.264Z,4.70
2023-05-24T11:36:49.414Z,4.47
2023-05-24T11:39:16.803Z,4.38
2023-05-24T11:41:44.298Z,5.10
2023-05-24T11:44:12.023Z,4.70
2023-05-24T11:46:39.807Z,4.25
2023-05-24T11:49:06.990Z,4.60
2023-05-24T11:51:35.814Z,9.25
2023-05-24T11:54:02.466Z,4.63
2023-05-24T11:56:33.195Z,5.00
2023-05-24T11:59:09.801Z,4.85
2023-05-24T12:01:38.294Z,4.78
2023-05-24T12:04:07.276Z,4.45
2023-05-24T12:06:38.459Z,4.22
2023-05-24T12:09:08.669Z,4.63
2023-05-24T12:11:39.992Z,4.53
2023-05-24T12:14:08.362Z,4.38
2023-05-24T12:16:36.876Z,9.93
2023-05-24T12:19:07.386Z,5.53
2023-05-24T12:21:44.060Z,5.88
2023-05-24T12:24:12.111Z,5.15
2023-05-24T12:26:47.220Z,4.95
2023-05-24T12:29:14.616Z,5.03
2023-05-24T12:31:42.838Z,5.13
2023-05-24T12:34:16.646Z,4.57
2023-05-24T12:36:44.001Z,4.43
2023-05-24T12:39:42.810Z,5.10
2023-05-24T12:42:12.009Z,4.72
2023-05-24T12:44:39.369Z,4.85
2023-05-24T12:47:08.424Z,5.25
2023-05-24T12:49:35.831Z,4.88
2023-05-24T12:52:02.512Z,4.80
2023-05-24T12:54:29.653Z,5.18
2023-05-24T12:56:57.752Z,5.28
2023-05-24T12:59:26.210Z,4.93
2023-05-24T13:01:53.263Z,4.68
2023-05-24T13:04:23.093Z,4.53
2023-05-24T13:06:49.986Z,5.13
2023-05-24T13:09:21.995Z,5.80
2023-05-24T13:11:48.991Z,5.15
2023-05-24T13:14:16.774Z,5.43
2023-05-24T13:16:44.304Z,5.45
2023-05-24T13:19:11.887Z,5.10
2023-05-24T13:21:39.180Z,4.85
2023-05-24T13:24:06.787Z,4.50
2023-05-24T13:26:38.145Z,4.68
2023-05-24T13:31:37.933Z,4.53
2023-05-24T13:34:05.272Z,4.72
2023-05-24T13:36:32.289Z,4.55
2023-05-24T13:39:14.086Z,4.07
2023-05-24T13:41:43.440Z,4.60
2023-05-24T13:44:10.807Z,4.22
2023-05-24T13:46:38.293Z,4.65
2023-05-24T13:49:05.763Z,5.07
2023-05-24T13:51:33.101Z,4.70
2023-05-24T13:53:59.988Z,5.03
2023-05-24T13:56:32.839Z,5.07
2023-05-24T13:59:04.569Z,7.47
2023-05-24T14:01:32.105Z,4.95
2023-05-24T14:04:01.620Z,4.70
2023-05-24T14:06:28.458Z,4.50
2023-05-24T14:08:55.170Z,4.65
2023-05-24T14:11:22.311Z,4.65
2023-05-24T14:16:19.452Z,5.05
2023-05-24T14:18:49.139Z,4.70
2023-05-24T14:21:16.408Z,4.50
2023-05-24T14:23:43.130Z,4.40
2023-05-24T14:26:09.790Z,4.65
2023-05-24T14:28:36.662Z,4.43
2023-05-24T14:31:03.531Z,4.13
2023-05-24T14:33:30.437Z,4.80
2023-05-24T14:35:57.650Z,4.88
2023-05-24T14:38:25.108Z,4.40
2023-05-24T14:40:52.038Z,4.55
2023-05-24T14:43:18.770Z,4.25
2023-05-24T14:45:45.651Z,4.80
2023-05-24T14:48:12.951Z,4.68
2023-05-24T14:50:40.466Z,4.38
2023-05-24T14:53:09.786Z,4.78
2023-05-24T14:55:37.524Z,4.35
2023-05-24T14:58:09.435Z,4.43
2023-05-24T15:00:36.876Z,4.43
2023-05-24T15:03:05.942Z,4.30
2023-05-24T15:05:33.145Z,4.63
2023-05-24T15:07:59.886Z,4.57
2023-05-24T15:10:26.803Z,4.78
2023-05-24T15:12:53.580Z,4.25
2023-05-24T15:15:22.588Z,4.43
2023-05-24T15:17:49.643Z,4.53
2023-05-24T15:20:16.657Z,4.63
2023-05-24T15:22:43.575Z,4.25
2023-05-24T15:25:11.429Z,4.47
2023-05-24T15:27:38.200Z,4.03
2023-05-24T15:30:05.616Z,3.90
2023-05-24T15:32:32.307Z,4.45
2023-05-24T15:35:00.422Z,4.38
2023-05-24T15:37:27.436Z,4.00
2023-05-24T15:39:54.496Z,4.32
2023-05-24T15:42:21.862Z,3.92
2023-05-24T15:44:48.571Z,4.13
2023-05-24T15:47:15.429Z,4.40
2023-05-24T15:49:42.282Z,4.25
2023-05-24T15:52:10.049Z,3.85
2023-05-24T15:54:36.942Z,4.07
2023-05-24T15:57:03.857Z,4.03
2023-05-24T15:59:30.658Z,4.18
2023-05-24T16:01:57.417Z,4.10
2023-05-24T16:04:24.103Z,3.67
2023-05-24T16:06:50.930Z,11.50
2023-05-24T16:09:17.775Z,8.57
2023-05-24T16:11:44.605Z,3.83
2023-05-24T16:14:11.481Z,3.80
2023-05-24T16:16:38.368Z,4.43
2023-05-24T16:19:05.259Z,4.13
2023-05-24T16:21:32.928Z,3.72
2023-05-24T16:24:01.845Z,3.95
2023-05-24T16:26:30.912Z,4.35
2023-05-24T16:28:58.046Z,3.65
2023-05-24T16:31:25.241Z,4.45
2023-05-24T16:33:52.062Z,3.60
2023-05-24T16:36:19.101Z,3.63
2023-05-24T16:38:45.851Z,4.65
2023-05-24T16:41:12.631Z,3.90
2023-05-24T16:43:39.462Z,3.75
2023-05-24T16:46:06.534Z,3.40
2023-05-24T16:48:33.410Z,3.88
2023-05-24T16:51:00.880Z,3.67
2023-05-24T16:53:27.895Z,3.72
2023-05-24T16:55:55.910Z,3.50
2023-05-24T16:58:31.121Z,3.70
2023-05-24T17:00:58.867Z,4.18
2023-05-24T17:03:29.788Z,3.40
2023-05-24T17:06:02.016Z,3.75
2023-05-24T17:08:29.980Z,3.28
2023-05-24T17:10:57.153Z,4.30
2023-05-24T17:13:23.959Z,3.60
2023-05-24T17:15:53.852Z,4.70
2023-05-24T17:18:27.872Z,4.18
2023-05-24T17:21:00.031Z,3.97
2023-05-24T17:23:28.246Z,3.45
2023-05-24T17:25:58.470Z,3.35
2023-05-24T17:28:29.161Z,5.20
2023-05-24T17:30:57.001Z,8.88
2023-05-24T17:33:24.937Z,12.10
2023-05-24T17:35:52.211Z,5.25
2023-05-24T17:38:19.202Z,5.60
2023-05-24T17:40:46.709Z,4.18
2023-05-24T17:43:13.650Z,4.07
2023-05-24T17:45:40.812Z,4.30
2023-05-24T17:48:08.113Z,3.88
2023-05-24T17:50:34.862Z,3.45
2023-05-24T17:53:01.644Z,4.32
2023-05-24T17:55:28.335Z,4.18
2023-05-24T17:57:55.095Z,16.50
2023-05-24T18:00:22.054Z,13.02
2023-05-24T18:02:48.958Z,6.93
2023-05-24T18:05:16.580Z,3.92
2023-05-24T18:07:43.525Z,4.18
2023-05-24T18:10:10.758Z,4.35
2023-05-24T18:12:37.704Z,4.10
2023-05-24T18:15:05.311Z,59.60
2023-05-24T18:17:32.139Z,14.07
2023-05-24T18:19:58.925Z,5.03
2023-05-24T18:22:25.853Z,3.47
2023-05-24T18:24:52.496Z,4.65
2023-05-24T18:27:19.225Z,4.65
2023-05-24T18:29:45.983Z,4.38
2023-05-24T18:32:12.645Z,3.78
2023-05-24T18:34:39.325Z,4.10
2023-05-24T18:37:06.052Z,3.70
2023-05-24T18:39:32.732Z,3.35
2023-05-24T18:41:59.371Z,4.00
2023-05-24T18:44:26.060Z,4.80
2023-05-24T18:46:55.619Z,8.35
2023-05-24T18:49:23.439Z,12.63
2023-05-24T18:51:50.143Z,17.30
2023-05-24T18:54:16.938Z,12.55
2023-05-24T18:56:43.943Z,9.20
2023-05-24T18:59:12.361Z,7.95
2023-05-24T19:01:39.373Z,7.32
2023-05-24T19:04:06.183Z,6.35
2023-05-24T19:06:33.063Z,5.03
2023-05-24T19:09:02.712Z,5.45
2023-05-24T19:11:29.450Z,4.53
2023-05-24T19:13:56.279Z,4.30
2023-05-24T19:16:23.210Z,4.63
2023-05-24T19:18:49.908Z,4.63
2023-05-24T19:21:16.715Z,13.18
2023-05-24T19:23:43.520Z,32.15
2023-05-24T19:26:11.161Z,19.05
2023-05-24T19:28:40.401Z,11.75
2023-05-24T19:31:07.362Z,7.68
2023-05-24T19:33:35.085Z,61.10
2023-05-24T19:36:09.938Z,22.52
2023-05-24T19:38:37.782Z,5.68
2023-05-24T19:41:04.637Z,4.10
2023-05-24T19:43:31.465Z,30.77
2023-05-24T19:45:58.552Z,11.10
2023-05-24T19:48:25.476Z,26.67
2023-05-24T19:50:52.297Z,21.33
2023-05-24T19:53:19.144Z,63.08
2023-05-24T19:55:46.325Z,12.63
2023-05-24T19:58:13.124Z,8.18
2023-05-24T20:00:39.888Z,41.13
2023-05-24T20:03:06.834Z,71.57
2023-05-24T20:05:33.646Z,17.10
2023-05-24T20:08:00.465Z,24.95
2023-05-24T20:10:29.827Z,61.33
2023-05-24T20:12:56.748Z,33.72
2023-05-24T20:15:29.786Z,14.38
2023-05-24T20:17:56.718Z,6.78
2023-05-24T20:20:23.533Z,6.75
2023-05-24T20:22:50.410Z,4.75
2023-05-24T20:25:19.188Z,7.90
2023-05-24T20:27:46.127Z,5.03
2023-05-24T20:30:14.599Z,5.20
2023-05-24T20:32:41.567Z,4.80
2023-05-24T20:35:09.145Z,5.57
2023-05-24T20:37:36.428Z,19.27
2023-05-24T20:40:05.681Z,14.93
2023-05-24T20:42:32.388Z,12.30
2023-05-24T20:44:59.172Z,37.25
2023-05-24T20:47:27.545Z,41.42
2023-05-24T20:49:56.217Z,24.67
2023-05-24T20:52:23.101Z,48.45
2023-05-24T20:54:50.088Z,53.10
2023-05-24T20:57:17.184Z,46.75
2023-05-24T20:59:44.217Z,34.88
2023-05-24T21:02:11.308Z,66.22
2023-05-24T21:04:38.049Z,49.35
2023-05-24T21:07:05.147Z,11.52
2023-05-24T21:09:31.955Z,9.27
2023-05-24T21:11:58.797Z,10.40
2023-05-24T21:14:27.007Z,6.60
2023-05-24T21:16:54.191Z,10.80
2023-05-24T21:19:21.217Z,11.32
2023-05-24T21:21:47.914Z,9.23
2023-05-24T21:24:15.941Z,8.23
2023-05-24T21:26:42.589Z,6.93
2023-05-24T21:29:13.141Z,5.68
2023-05-24T21:31:41.271Z,6.97
2023-05-24T21:34:08.019Z,5.53
2023-05-24T21:36:34.728Z,5.63
2023-05-24T21:39:03.880Z,33.25
2023-05-24T21:41:30.515Z,17.90
2023-05-24T21:43:57.135Z,8.27
2023-05-24T21:46:23.811Z,6.45
2023-05-24T21:48:50.494Z,38.13
2023-05-24T21:51:17.222Z,72.97
2023-05-24T21:53:43.857Z,60.60
2023-05-24T21:56:10.585Z,50.90
2023-05-24T21:58:38.064Z,12.52
2023-05-24T22:01:04.855Z,6.15
2023-05-24T22:03:31.603Z,5.97
2023-05-24T22:05:58.314Z,5.80
2023-05-24T22:08:24.978Z,5.15
2023-05-24T22:10:51.714Z,5.00
2023-05-24T22:13:18.463Z,6.40
2023-05-24T22:15:45.290Z,23.25
2023-05-24T22:18:12.848Z,27.23
2023-05-24T22:20:39.617Z,50.92
2023-05-24T22:23:06.694Z,12.10
2023-05-24T22:25:33.396Z,6.30
2023-05-24T22:28:00.118Z,5.60
2023-05-24T22:30:27.040Z,7.97
2023-05-24T22:32:53.799Z,5.57
2023-05-24T22:35:20.597Z,4.63
2023-05-24T22:37:47.237Z,5.25
2023-05-24T22:40:14.168Z,5.88
2023-05-24T22:42:41.014Z,5.47
2023-05-24T22:45:08.473Z,5.20
2023-05-24T22:47:35.260Z,5.07
2023-05-24T22:50:02.571Z,5.40
2023-05-24T22:52:30.372Z,4.85
2023-05-24T22:54:57.101Z,5.10
2023-05-24T22:57:23.760Z,5.30
2023-05-24T22:59:50.654Z,5.70
2023-05-24T23:02:17.500Z,5.30
2023-05-24T23:04:46.146Z,5.25
2023-05-24T23:07:15.354Z,5.10
2023-05-24T23:09:43.173Z,5.85
2023-05-24T23:12:10.467Z,6.20
2023-05-24T23:14:38.964Z,5.55
2023-05-24T23:17:07.257Z,5.75
2023-05-24T23:19:34.166Z,9.00
2023-05-24T23:22:03.689Z,42.25
2023-05-24T23:24:31.251Z,11.73
2023-05-24T23:26:57.956Z,7.00
2023-05-24T23:29:24.635Z,5.97
2023-05-24T23:31:51.339Z,6.65
2023-05-24T23:34:18.034Z,7.03
2023-05-24T23:36:44.762Z,6.43
2023-05-24T23:39:12.566Z,6.25
2023-05-24T23:41:39.285Z,6.30
2023-05-24T23:44:06.069Z,6.03
2023-05-24T23:46:32.807Z,5.43
2023-05-24T23:49:00.401Z,6.18
2023-05-24T23:51:27.218Z,7.15
2023-05-24T23:53:53.846Z,6.53
2023-05-24T23:56:20.537Z,6.13
2023-05-24T23:58:48.007Z,6.30
